Terminal Aerodrome Forecast
Issued by NWS Portland, OR

Home | Current Version | Previous Version | Text Only | Print | Product List | Glossary On
Versions: 1 2 3 4 5 6 7 8 9 10 11 12 13 14 15 16 17 18 19 20 21 22 23 24 25 26 27 28
000
FTUS46 KPQR 191140
TAFHIO
TAF
KHIO 191140Z 1912/2012 28004KT P6SM SCT060 BKN120
     FM191500 28004KT P6SM SCT040 BKN060 OVC100
      TEMPO 1915/1918 -RA
     FM191800 29006KT 5SM -RA SCT020 BKN030 OVC040
     FM200100 31007KT P6SM BKN025 OVC035
     FM200900 30005KT P6SM OVC025=

USA.gov is the U.S. government's official web portal to all federal, state and local government web resources and services.